Time;durP1;ratioP1;P1;durP2;ratioP2;P2;SDS_P1;SDS_P2;PMS_P1;PMS_P2;Temp;Humidity;BMP_temperature;BMP_pressure;BME280_temperature;BME280_humidity;BME280_pressure;Samples;Min_cycle;Max_cycle;Signal;HPM_P1;HPM_P2
2021/01/23 00:03:16;;;;;;;45.97;17.80;;;;;;;2.30;67.21;98290.38;10461686;28;20114;-49
2021/01/23 00:08:18;;;;;;;;;;;;;;;2.41;67.28;98276.63;10460806;28;20478;-49
2021/01/23 00:13:23;;;;;;;40.70;12.68;;;;;;;2.38;67.21;98263.88;10461567;28;19924;-48
2021/01/23 00:18:24;;;;;;;37.00;14.75;;;;;;;2.35;67.01;98269.28;10465068;28;20143;-50
2021/01/23 00:23:26;;;;;;;40.15;17.05;;;;;;;2.43;67.25;98262.59;10460203;28;20052;-50
2021/01/23 00:28:29;;;;;;;44.83;16.05;;;;;;;2.46;66.86;98269.28;10460557;28;20185;-49
2021/01/23 00:33:30;;;;;;;31.95;11.55;;;;;;;2.45;67.04;98272.84;10460261;28;20045;-50
2021/01/23 00:38:32;;;;;;;41.67;15.32;;;;;;;2.40;67.39;98269.75;10460485;28;20059;-53
2021/01/23 00:43:35;;;;;;;72.07;17.27;;;;;;;2.44;67.50;98259.06;10460250;28;20113;-50
2021/01/23 00:48:36;;;;;;;45.15;16.35;;;;;;;2.46;66.95;98266.72;10479618;28;20045;-50
2021/01/23 00:53:40;;;;;;;;;;;;;;;2.50;67.24;98265.56;10502218;28;20036;-50
2021/01/23 00:58:42;;;;;;;42.25;12.10;;;;;;;2.45;67.20;98268.47;10505405;28;19924;-50
2021/01/23 01:03:45;;;;;;;51.95;15.50;;;;;;;2.41;67.18;98276.63;10502479;28;20088;-50
2021/01/23 01:08:48;;;;;;;48.30;16.60;;;;;;;2.34;67.21;98273.66;10500286;28;20067;-49
2021/01/23 01:13:50;;;;;;;63.78;17.25;;;;;;;2.38;67.65;98274.25;10500411;28;20147;-50
2021/01/23 01:18:52;;;;;;;68.72;16.83;;;;;;;2.39;67.65;98265.53;10500809;28;20130;-50
2021/01/23 01:23:54;;;;;;;50.78;15.20;;;;;;;2.41;67.82;98263.66;10500147;28;20044;-49
2021/01/23 01:28:56;;;;;;;79.53;20.75;;;;;;;2.41;67.67;98259.28;10501370;28;20055;-50
2021/01/23 01:33:58;;;;;;;50.30;16.23;;;;;;;2.44;67.28;98253.88;10500627;28;20097;-48
2021/01/23 01:39:00;;;;;;;65.30;15.50;;;;;;;2.38;67.72;98248.31;10499848;28;20053;-49
2021/01/23 01:44:03;;;;;;;77.43;20.80;;;;;;;2.37;67.86;98246.66;10499952;28;20377;-51
2021/01/23 01:49:06;;;;;;;66.10;17.73;;;;;;;2.44;67.73;98234.88;10499740;28;20114;-48
2021/01/23 01:54:08;;;;;;;76.90;16.93;;;;;;;2.47;67.80;98240.66;10499293;28;20105;-48
2021/01/23 01:59:12;;;;;;;97.20;20.67;;;;;;;2.50;67.87;98250.00;10500744;28;20750;-50
2021/01/23 02:04:27;;;;;;;56.13;14.88;;;;;;;2.56;67.56;98251.31;10499296;28;20060;-49
2021/01/23 02:09:41;;;;;;;80.78;19.48;;;;;;;2.61;67.72;98237.00;10506881;28;20048;-50
2021/01/23 02:14:52;;;;;;;71.68;19.85;;;;;;;2.64;67.42;98249.75;10507846;28;20045;-50
2021/01/23 02:20:30;;;;;;;127.78;27.00;;;;;;;2.60;67.30;98248.34;10507957;28;20367;-50
2021/01/23 02:25:39;;;;;;;96.07;21.77;;;;;;;2.58;67.74;98260.59;10500570;28;20381;-49
2021/01/23 02:30:49;;;;;;;101.55;23.65;;;;;;;2.63;67.73;98250.72;10506420;28;20048;-50
2021/01/23 02:35:53;;;;;;;109.60;25.02;;;;;;;2.72;67.41;98256.97;10507114;28;20052;-50
2021/01/23 02:40:55;;;;;;;91.00;18.17;;;;;;;2.81;67.23;98243.28;10506510;28;20048;-49
2021/01/23 02:45:57;;;;;;;94.60;20.42;;;;;;;2.87;67.13;98244.59;10505347;28;20400;-49
2021/01/23 02:51:01;;;;;;;86.53;21.48;;;;;;;2.89;67.67;98246.09;10505769;28;20045;-51
2021/01/23 02:56:08;;;;;;;91.35;20.88;;;;;;;2.97;67.08;98250.72;10512230;28;20053;-51
2021/01/23 03:01:11;;;;;;;73.55;17.63;;;;;;;2.98;67.18;98257.56;10508430;28;20071;-49
2021/01/23 03:06:14;;;;;;;108.80;21.77;;;;;;;2.86;67.13;98250.72;10505050;28;20055;-50
2021/01/23 03:11:15;;;;;;;106.60;23.33;;;;;;;2.77;67.42;98249.66;10472230;28;20131;-48
2021/01/23 03:16:17;;;;;;;123.18;26.33;;;;;;;2.76;68.01;98248.00;10463156;28;20041;-51
2021/01/23 03:21:20;;;;;;;132.68;23.90;;;;;;;2.74;67.85;98239.50;10463480;28;20416;-49
2021/01/23 03:26:21;;;;;;;102.22;21.38;;;;;;;2.74;67.96;98248.13;10463896;28;20199;-56
2021/01/23 03:31:23;;;;;;;106.95;21.23;;;;;;;2.66;68.07;98242.69;10462796;28;20048;-47
2021/01/23 03:36:26;;;;;;;96.85;21.90;;;;;;;2.63;68.24;98240.34;10464010;28;20063;-50
2021/01/23 03:41:28;;;;;;;97.47;17.05;;;;;;;2.66;68.43;98242.69;10465765;28;20484;-48
2021/01/23 03:46:29;;;;;;;138.30;25.75;;;;;;;2.63;68.27;98245.53;10464617;28;20053;-51
2021/01/23 03:51:32;;;;;;;102.57;19.60;;;;;;;2.59;68.50;98238.91;10462537;28;20053;-52
2021/01/23 03:56:34;;;;;;;125.13;27.23;;;;;;;2.56;68.76;98236.56;10462481;28;20775;-50
2021/01/23 04:01:35;;;;;;;105.30;23.90;;;;;;;2.63;68.82;98236.91;10461666;28;20129;-49
2021/01/23 04:06:38;;;;;;;115.45;22.67;;;;;;;2.65;68.99;98238.47;10458479;28;20040;-48
2021/01/23 04:11:40;;;;;;;230.10;36.35;;;;;;;2.67;68.58;98236.56;10455678;28;20053;-49
2021/01/23 04:16:42;;;;;;;179.35;29.52;;;;;;;2.76;68.49;98238.44;10455164;28;20045;-49
2021/01/23 04:21:45;;;;;;;144.10;28.17;;;;;;;2.79;68.50;98244.34;10459403;28;20378;-56
2021/01/23 04:26:46;;;;;;;122.10;26.73;;;;;;;2.87;68.67;98248.00;10459207;28;20482;-49
2021/01/23 04:31:48;;;;;;;151.55;28.48;;;;;;;2.88;68.86;98264.41;10458673;28;20091;-50
2021/01/23 04:36:51;;;;;;;136.88;26.52;;;;;;;2.93;68.63;98260.53;10458443;28;20091;-50
2021/01/23 04:41:52;;;;;;;142.55;32.03;;;;;;;2.98;68.82;98253.19;10458359;28;20124;-48
2021/01/23 04:46:54;;;;;;;164.70;29.27;;;;;;;3.09;68.47;98254.16;10459623;28;20049;-50
2021/01/23 04:51:57;;;;;;;161.68;27.50;;;;;;;3.14;68.57;98250.25;10460517;28;20053;-52
2021/01/23 04:56:59;;;;;;;104.30;24.40;;;;;;;3.15;68.64;98249.31;10462844;28;20052;-50
2021/01/23 05:02:17;;;;;;;134.00;25.08;;;;;;;3.22;68.60;98249.63;10458914;28;20494;-52
2021/01/23 05:07:28;;;;;;;111.70;25.58;;;;;;;3.27;68.28;98257.09;10459631;28;20084;-48
2021/01/23 05:12:37;;;;;;;95.63;24.65;;;;;;;3.31;68.71;98264.50;10456872;28;20087;-50
2021/01/23 05:17:46;;;;;;;105.75;25.70;;;;;;;3.31;68.70;98268.88;10458783;28;20052;-52
2021/01/23 05:22:49;;;;;;;134.55;31.08;;;;;;;3.31;68.49;98258.50;10459720;28;20144;-48
2021/01/23 05:27:51;;;;;;;96.33;23.90;;;;;;;3.35;68.35;98265.91;10458941;28;20053;-51
2021/01/23 05:33:07;;;;;;;83.95;23.58;;;;;;;3.43;68.13;98265.31;10460080;28;20072;-50
2021/01/23 05:38:34;;;;;;;78.97;22.63;;;;;;;3.41;68.32;98269.78;10459714;28;20063;-49
2021/01/23 05:43:37;;;;;;;109.05;27.23;;;;;;;3.44;68.90;98261.75;10443052;28;20397;-49
2021/01/23 05:48:41;;;;;;;111.10;24.13;;;;;;;3.55;68.28;98264.34;10459869;28;20059;-49
2021/01/23 05:53:45;;;;;;;96.60;24.95;;;;;;;3.59;68.30;98264.94;10458004;28;20178;-52
2021/01/23 05:58:47;;;;;;;82.35;25.88;;;;;;;3.57;68.68;98259.88;10457956;28;20052;-50
2021/01/23 06:03:51;;;;;;;87.68;25.88;;;;;;;3.63;68.43;98259.38;10458389;28;20056;-49
2021/01/23 06:08:54;;;;;;;92.20;24.33;;;;;;;3.71;68.05;98276.13;10458002;28;20049;-49
2021/01/23 06:13:57;;;;;;;86.63;24.52;;;;;;;3.76;68.19;98263.59;10457551;28;20371;-49
2021/01/23 06:18:59;;;;;;;87.97;25.17;;;;;;;3.71;68.67;98268.34;10457933;28;20061;-49
2021/01/23 06:24:01;;;;;;;62.08;21.38;;;;;;;3.76;68.34;98274.00;10457351;28;20063;-50
2021/01/23 06:29:03;;;;;;;86.20;24.63;;;;;;;3.72;68.89;98257.78;10457059;28;20045;-49
2021/01/23 06:34:24;;;;;;;90.15;25.60;;;;;;;3.74;69.08;98252.50;10457241;28;20045;-51
2021/01/23 06:39:27;;;;;;;124.78;30.15;;;;;;;3.78;68.53;98257.31;10456700;28;20049;-52
2021/01/23 06:44:32;;;;;;;68.03;22.55;;;;;;;3.85;68.44;98242.88;10457054;28;20056;-51
2021/01/23 06:49:40;;;;;;;118.13;29.15;;;;;;;3.87;68.75;98255.75;10456345;28;20469;-51
2021/01/23 06:54:46;;;;;;;63.53;19.02;;;;;;;3.98;68.61;98255.72;10497616;28;20434;-51
2021/01/23 06:59:49;;;;;;;76.10;21.33;;;;;;;4.03;68.79;98261.34;10508930;28;20041;-58
2021/01/23 07:04:51;;;;;;;81.18;22.85;;;;;;;3.96;68.93;98265.41;10505544;28;20103;-50
2021/01/23 07:09:54;;;;;;;95.05;29.02;;;;;;;3.88;69.12;98265.22;10504908;28;20048;-49
2021/01/23 07:14:56;;;;;;;84.28;23.85;;;;;;;3.99;68.50;98251.31;10505790;28;20064;-49
2021/01/23 07:19:58;;;;;;;78.80;24.55;;;;;;;3.97;69.17;98261.03;10504334;28;20392;-56
2021/01/23 07:25:01;;;;;;;62.22;21.88;;;;;;;4.03;69.30;98255.31;10504448;28;20106;-50
2021/01/23 07:30:09;;;;;;;73.43;25.23;;;;;;;4.02;69.11;98270.09;10505569;28;20072;-51
2021/01/23 07:35:12;;;;;;;57.90;19.58;;;;;;;4.09;69.11;98260.84;10504908;28;20105;-50
2021/01/23 07:40:17;;;;;;;73.18;22.27;;;;;;;4.06;68.67;98263.69;10504193;28;20044;-51
2021/01/23 07:45:20;;;;;;;70.82;21.48;;;;;;;3.97;69.22;98259.25;10503412;28;20147;-51
2021/01/23 07:50:22;;;;;;;61.85;19.42;;;;;;;4.01;69.52;98270.25;10503413;28;20040;-49
2021/01/23 07:55:37;;;;;;;68.85;21.73;;;;;;;4.05;69.41;98269.03;10503313;28;20063;-49
2021/01/23 08:00:40;;;;;;;40.50;12.88;;;;;;;4.09;69.59;98281.66;10505304;28;20055;-50
2021/01/23 08:05:45;;;;;;;49.33;18.10;;;;;;;4.15;69.17;98286.34;10504593;28;20048;-49
2021/01/23 08:10:48;;;;;;;57.20;19.90;;;;;;;4.24;69.13;98281.34;10504358;28;20090;-49
2021/01/23 08:15:50;;;;;;;59.88;22.27;;;;;;;4.27;69.14;98281.94;10503402;28;20071;-49
2021/01/23 08:20:52;;;;;;;81.20;25.42;;;;;;;4.38;68.95;98286.25;10502443;28;20044;-48
2021/01/23 08:25:55;;;;;;;71.45;25.40;;;;;;;4.44;68.75;98279.72;10502484;28;20067;-50
2021/01/23 08:31:09;;;;;;;;;;;;;;;4.50;69.33;98282.66;10503211;28;20041;-49
2021/01/23 08:36:11;;;;;;;67.90;22.30;;;;;;;4.43;69.13;98285.88;10501555;28;19928;-49
2021/01/23 08:41:14;;;;;;;64.72;22.85;;;;;;;4.44;69.49;98290.97;10501477;28;20057;-48
2021/01/23 08:46:16;;;;;;;78.13;27.80;;;;;;;4.49;69.27;98288.78;10501676;28;20044;-49
2021/01/23 08:51:17;;;;;;;68.40;23.33;;;;;;;4.58;69.39;98297.63;10503204;28;20053;-49
2021/01/23 08:56:20;;;;;;;63.00;22.38;;;;;;;4.57;68.97;98302.00;10501376;28;20083;-48
2021/01/23 09:01:22;;;;;;;70.55;26.08;;;;;;;4.62;69.19;98309.44;10500613;28;20113;-48
2021/01/23 09:06:23;;;;;;;72.53;25.05;;;;;;;4.59;69.21;98314.91;10501460;28;20096;-49
2021/01/23 09:11:26;;;;;;;81.57;25.70;;;;;;;4.63;69.93;98302.44;10502155;28;20127;-52
2021/01/23 09:16:28;;;;;;;74.37;24.07;;;;;;;4.75;70.43;98307.47;10500566;28;20136;-49
2021/01/23 09:21:30;;;;;;;71.47;27.30;;;;;;;4.85;70.80;98297.09;10499470;28;20049;-51
2021/01/23 09:26:33;;;;;;;70.10;25.88;;;;;;;4.83;71.30;98297.25;10500569;28;20049;-51
2021/01/23 09:31:35;;;;;;;92.05;26.67;;;;;;;4.83;71.07;98302.44;10500008;28;20380;-49
2021/01/23 09:36:36;;;;;;;80.97;26.38;;;;;;;4.89;71.18;98308.91;10500583;28;20052;-50
2021/01/23 09:41:39;;;;;;;66.20;23.48;;;;;;;5.03;71.17;98313.78;10499672;28;20049;-49
2021/01/23 09:46:40;;;;;;;67.70;26.05;;;;;;;5.00;71.53;98321.03;10498340;28;20052;-48
2021/01/23 09:51:42;;;;;;;69.90;24.40;;;;;;;4.94;71.53;98319.75;10500847;28;20473;-50
2021/01/23 09:56:45;;;;;;;76.53;26.30;;;;;;;4.95;71.59;98320.59;10499975;28;20048;-50
2021/01/23 10:01:47;;;;;;;72.32;27.67;;;;;;;4.93;71.11;98328.53;10500240;28;20134;-50
2021/01/23 10:06:48;;;;;;;62.80;22.40;;;;;;;5.02;71.24;98326.94;10499762;28;20091;-50
2021/01/23 10:11:51;;;;;;;62.55;25.55;;;;;;;5.08;70.63;98324.63;10498898;28;20572;-49
2021/01/23 10:16:53;;;;;;;75.10;24.52;;;;;;;5.13;71.05;98331.22;10499121;28;20480;-51
2021/01/23 10:21:55;;;;;;;72.05;27.55;;;;;;;5.12;70.55;98321.78;10498045;28;20109;-49
2021/01/23 10:26:57;;;;;;;65.05;25.05;;;;;;;5.15;70.78;98319.72;10500562;28;20067;-54
2021/01/23 10:31:59;;;;;;;63.53;24.83;;;;;;;5.18;70.96;98318.66;10506518;28;20202;-50
2021/01/23 10:37:01;;;;;;;68.30;27.55;;;;;;;5.24;70.52;98331.16;10505594;28;20090;-51
2021/01/23 10:42:04;;;;;;;63.00;26.13;;;;;;;5.33;70.40;98327.78;10507476;28;20048;-50
2021/01/23 10:47:06;;;;;;;54.00;24.73;;;;;;;5.42;70.46;98324.38;10506399;28;20469;-49
2021/01/23 10:52:08;;;;;;;67.47;26.85;;;;;;;5.34;70.44;98326.81;10505977;28;20333;-52
2021/01/23 10:57:11;;;;;;;60.63;24.42;;;;;;;5.39;70.54;98324.63;10506702;28;20052;-54
2021/01/23 11:02:12;;;;;;;72.43;25.53;;;;;;;5.42;69.98;98324.38;10505077;28;20053;-49
2021/01/23 11:07:14;;;;;;;69.72;25.08;;;;;;;5.39;70.23;98335.06;10505092;28;20059;-50
2021/01/23 11:12:16;;;;;;;57.35;23.17;;;;;;;5.36;69.86;98339.69;10508308;28;20473;-52
2021/01/23 11:17:18;;;;;;;76.80;24.40;;;;;;;5.34;70.24;98342.44;10505977;28;20193;-50
2021/01/23 11:22:20;;;;;;;63.33;23.75;;;;;;;5.33;69.73;98332.97;10499319;28;20044;-49
2021/01/23 11:27:22;;;;;;;63.47;23.92;;;;;;;5.33;69.79;98335.59;10502381;28;20556;-51
2021/01/23 11:32:24;;;;;;;52.08;20.67;;;;;;;5.39;69.73;98340.28;10505653;28;20045;-49
2021/01/23 11:37:26;;;;;;;56.17;21.60;;;;;;;5.40;70.49;98346.31;10503244;28;20428;-52
2021/01/23 11:42:28;;;;;;;57.90;22.23;;;;;;;5.40;69.71;98344.53;10503974;28;20109;-49
2021/01/23 11:47:30;;;;;;;53.03;20.60;;;;;;;5.37;70.52;98347.38;10503584;28;20072;-49
2021/01/23 11:52:32;;;;;;;59.83;23.30;;;;;;;5.33;70.55;98351.22;10503554;28;20420;-51
2021/01/23 11:57:35;;;;;;;48.25;20.95;;;;;;;5.41;70.52;98347.94;10503111;28;20511;-51
2021/01/23 12:02:37;;;;;;;79.57;25.37;;;;;;;5.38;70.61;98358.63;10504223;28;20114;-49
2021/01/23 12:07:39;;;;;;;55.78;23.20;;;;;;;5.39;70.59;98355.91;10502805;28;20352;-49
2021/01/23 12:12:42;;;;;;;65.78;23.63;;;;;;;5.34;70.75;98352.03;10502761;28;20084;-52
2021/01/23 12:17:44;;;;;;;58.37;23.10;;;;;;;5.40;70.15;98356.72;10504602;28;20053;-49
2021/01/23 12:22:46;;;;;;;55.97;21.65;;;;;;;5.47;70.55;98356.06;10502659;28;20156;-52
2021/01/23 12:27:49;;;;;;;54.80;22.17;;;;;;;5.42;70.02;98349.59;10501775;28;20055;-50
2021/01/23 12:32:50;;;;;;;53.65;23.15;;;;;;;5.37;70.58;98357.81;10501830;28;20067;-51
2021/01/23 12:37:57;;;;;;;52.30;22.58;;;;;;;5.37;70.68;98357.81;10503071;28;20414;-50
2021/01/23 12:42:59;;;;;;;53.15;19.85;;;;;;;5.35;70.92;98359.72;10501685;28;20048;-51
2021/01/23 12:48:01;;;;;;;54.97;22.13;;;;;;;5.37;70.87;98367.41;10500933;28;20064;-51
2021/01/23 12:53:03;;;;;;;63.20;23.80;;;;;;;5.35;70.47;98359.72;10500883;28;20068;-51
2021/01/23 12:58:05;;;;;;;66.97;23.80;;;;;;;5.31;70.74;98360.94;10502333;28;20115;-52
2021/01/23 13:03:07;;;;;;;57.50;20.20;;;;;;;5.29;70.00;98370.66;10500925;28;20048;-51
2021/01/23 13:08:09;;;;;;;53.65;20.38;;;;;;;5.22;70.36;98359.94;10501886;28;20087;-51
2021/01/23 13:13:12;;;;;;;56.42;20.92;;;;;;;5.25;70.94;98369.28;10504956;28;20401;-50
2021/01/23 13:18:13;;;;;;;53.30;22.15;;;;;;;5.19;70.57;98364.59;10501387;28;20053;-50
2021/01/23 13:23:15;;;;;;;46.97;20.30;;;;;;;5.19;70.47;98382.81;10500045;28;20072;-50
2021/01/23 13:28:18;;;;;;;56.20;22.55;;;;;;;5.25;70.80;98390.13;10500716;28;20166;-51
2021/01/23 13:33:20;;;;;;;62.05;22.63;;;;;;;5.24;70.41;98396.28;10500848;28;20044;-51
2021/01/23 13:38:21;;;;;;;60.78;22.65;;;;;;;5.25;70.41;98395.31;10500513;28;20056;-49
2021/01/23 13:43:24;;;;;;;51.83;23.05;;;;;;;5.30;70.13;98399.19;10500302;28;20055;-49
2021/01/23 13:48:26;;;;;;;62.30;22.73;;;;;;;5.29;70.35;98396.72;10500469;28;20085;-50
2021/01/23 13:53:28;;;;;;;64.05;24.15;;;;;;;5.18;70.16;98392.41;10506387;28;20048;-49
2021/01/23 13:58:30;;;;;;;69.28;25.05;;;;;;;5.15;70.06;98399.66;10500007;28;20080;-49
2021/01/23 14:03:32;;;;;;;54.40;21.30;;;;;;;5.11;70.49;98399.09;10504556;28;20049;-49
2021/01/23 14:08:34;;;;;;;62.47;23.40;;;;;;;5.05;70.25;98405.66;10508670;28;20170;-50
2021/01/23 14:13:36;;;;;;;57.75;23.42;;;;;;;4.98;70.58;98401.88;10507120;28;20048;-50
2021/01/23 14:18:38;;;;;;;64.97;25.17;;;;;;;4.99;70.39;98403.56;10507722;28;20058;-55
2021/01/23 14:23:40;;;;;;;61.53;23.55;;;;;;;4.99;70.82;98402.72;10507258;28;20154;-50
2021/01/23 14:28:42;;;;;;;61.97;24.38;;;;;;;4.92;70.36;98394.56;10506665;28;20068;-49
2021/01/23 14:33:45;;;;;;;65.03;25.13;;;;;;;5.02;70.82;98400.69;10506580;28;20044;-51
2021/01/23 14:38:46;;;;;;;66.43;23.17;;;;;;;5.07;70.25;98406.31;10508375;28;20048;-52
2021/01/23 14:43:49;;;;;;;62.05;22.27;;;;;;;5.07;70.13;98408.94;10506694;28;20048;-49
2021/01/23 14:48:51;;;;;;;73.95;27.58;;;;;;;5.02;70.56;98408.50;10506699;28;20497;-49
2021/01/23 14:53:52;;;;;;;65.82;23.83;;;;;;;5.04;70.48;98414.38;10505806;28;20381;-51
2021/01/23 14:58:55;;;;;;;65.28;25.38;;;;;;;5.00;70.32;98418.22;10505887;28;20048;-52
2021/01/23 15:03:57;;;;;;;74.38;27.05;;;;;;;4.99;70.55;98418.34;10504884;28;20485;-50
2021/01/23 15:08:58;;;;;;;68.57;25.45;;;;;;;4.95;70.53;98409.94;10504646;28;20052;-51
2021/01/23 15:14:01;;;;;;;80.43;28.30;;;;;;;4.96;70.77;98411.63;10502870;28;20473;-50
2021/01/23 15:19:03;;;;;;;75.85;25.40;;;;;;;4.91;70.69;98424.19;10504395;28;20475;-51
2021/01/23 15:24:05;;;;;;;76.75;25.77;;;;;;;4.83;70.83;98429.19;10504192;28;20394;-50
2021/01/23 15:29:08;;;;;;;76.72;28.13;;;;;;;4.81;70.80;98428.50;10503966;28;20146;-50
2021/01/23 15:34:10;;;;;;;78.93;28.52;;;;;;;4.80;70.69;98432.03;10504424;28;20048;-51
2021/01/23 15:39:12;;;;;;;77.13;27.27;;;;;;;4.82;70.62;98432.75;10505555;28;20118;-53
2021/01/23 15:44:14;;;;;;;78.65;26.70;;;;;;;4.85;70.87;98437.69;10505696;28;20040;-49
2021/01/23 15:49:16;;;;;;;74.63;26.65;;;;;;;4.96;70.90;98440.25;10503469;28;20087;-50
2021/01/23 15:54:18;;;;;;;73.97;25.77;;;;;;;4.99;70.24;98441.78;10502953;28;20090;-51
2021/01/23 15:59:20;;;;;;;60.88;24.88;;;;;;;4.88;70.62;98455.69;10504128;28;20049;-50
2021/01/23 16:04:22;;;;;;;81.05;27.02;;;;;;;4.85;70.63;98463.75;10502604;28;20067;-49
2021/01/23 16:09:24;;;;;;;78.40;30.08;;;;;;;4.85;70.98;98469.78;10502602;28;20056;-50
2021/01/23 16:14:26;;;;;;;86.47;28.98;;;;;;;4.84;71.20;98475.13;10502423;28;20048;-51
2021/01/23 16:19:28;;;;;;;91.70;29.38;;;;;;;4.94;70.90;98476.00;10501775;28;20056;-49
2021/01/23 16:24:30;;;;;;;70.55;25.05;;;;;;;4.92;70.44;98483.09;10500843;28;20048;-51
2021/01/23 16:29:34;;;;;;;91.32;29.23;;;;;;;4.90;71.07;98487.63;10502765;28;20058;-51
2021/01/23 16:34:35;;;;;;;71.45;29.33;;;;;;;4.97;71.29;98496.59;10501530;28;20048;-51
2021/01/23 16:39:37;;;;;;;81.68;28.35;;;;;;;4.90;70.98;98487.63;10501365;28;20068;-51
2021/01/23 16:44:41;;;;;;;92.97;31.05;;;;;;;4.90;70.90;98492.84;10502481;28;20082;-50
2021/01/23 16:49:42;;;;;;;93.80;29.55;;;;;;;4.91;70.71;98491.06;10501052;28;20048;-50
2021/01/23 16:54:44;;;;;;;87.30;30.85;;;;;;;4.91;71.19;98499.69;10501134;28;20098;-51
2021/01/23 16:59:47;;;;;;;89.38;29.95;;;;;;;4.96;70.71;98492.34;10500873;28;20076;-51
2021/01/23 17:04:48;;;;;;;82.18;28.05;;;;;;;4.94;70.63;98491.63;10500330;28;20416;-55
2021/01/23 17:09:50;;;;;;;93.80;32.90;;;;;;;4.94;70.66;98496.84;10500702;28;20048;-51
2021/01/23 17:14:53;;;;;;;88.60;30.77;;;;;;;4.94;71.04;98494.25;10499105;28;20048;-50
2021/01/23 17:19:55;;;;;;;88.85;31.27;;;;;;;4.89;71.34;98498.16;10500306;28;20484;-49
2021/01/23 17:24:58;;;;;;;93.65;30.13;;;;;;;4.91;71.09;98504.09;10500663;28;20048;-50
2021/01/23 17:30:01;;;;;;;83.63;31.75;;;;;;;4.97;71.30;98512.22;10500343;28;20152;-51
2021/01/23 17:35:03;;;;;;;87.53;29.38;;;;;;;5.12;70.62;98514.53;10500741;28;20127;-51
2021/01/23 17:40:08;;;;;;;82.43;28.00;;;;;;;5.19;70.54;98510.47;10500995;28;20052;-52
2021/01/23 17:45:12;;;;;;;104.38;31.35;;;;;;;5.12;70.31;98519.75;10504503;28;20044;-50
2021/01/23 17:50:14;;;;;;;93.72;30.58;;;;;;;5.08;70.69;98512.19;10503415;28;20048;-49
2021/01/23 17:55:16;;;;;;;89.93;30.42;;;;;;;4.98;71.06;98519.06;10499833;28;20083;-49
2021/01/23 18:00:20;;;;;;;98.88;31.25;;;;;;;4.96;70.43;98515.78;10499221;28;20514;-50
2021/01/23 18:05:21;;;;;;;;;;;;;;;4.96;70.99;98514.97;10499512;28;20125;-52
2021/01/23 18:10:24;;;;;;;104.85;32.78;;;;;;;4.78;71.12;98512.06;10500908;28;19924;-49
2021/01/23 18:15:26;;;;;;;107.93;32.25;;;;;;;4.75;71.44;98512.31;10499514;28;20139;-49
2021/01/23 18:20:28;;;;;;;100.45;30.60;;;;;;;4.75;71.80;98517.50;10500015;28;20048;-49
2021/01/23 18:25:30;;;;;;;105.05;31.08;;;;;;;4.75;71.85;98522.72;10500915;28;20400;-51
2021/01/23 18:30:33;;;;;;;98.88;31.75;;;;;;;4.74;71.54;98510.63;10499288;28;20049;-49
2021/01/23 18:35:35;;;;;;;99.63;32.13;;;;;;;4.79;71.38;98514.53;10499724;28;20461;-49
2021/01/23 18:40:36;;;;;;;88.63;28.50;;;;;;;4.77;71.30;98506.03;10498787;28;20536;-51
2021/01/23 18:45:39;;;;;;;91.32;28.23;;;;;;;4.88;71.70;98518.16;10498860;28;20063;-52
2021/01/23 18:50:41;;;;;;;78.65;28.85;;;;;;;4.96;70.98;98520.19;10504401;28;20059;-51
2021/01/23 18:55:43;;;;;;;83.78;29.13;;;;;;;4.98;71.23;98516.47;10505674;28;20121;-51
2021/01/23 19:00:46;;;;;;;91.30;29.23;;;;;;;4.93;71.03;98510.81;10506243;28;20358;-50
2021/01/23 19:05:50;;;;;;;83.68;28.23;;;;;;;4.93;71.23;98525.63;10506430;28;20194;-50
2021/01/23 19:10:51;;;;;;;81.53;30.27;;;;;;;4.94;71.41;98524.66;10506340;28;20083;-51
2021/01/23 19:15:54;;;;;;;112.55;32.20;;;;;;;4.96;71.26;98535.81;10505305;28;20376;-51
2021/01/23 19:20:56;;;;;;;100.45;32.53;;;;;;;5.01;70.95;98539.66;10505482;28;20570;-50
2021/01/23 19:25:58;;;;;;;93.90;28.90;;;;;;;5.01;71.49;98534.44;10506147;28;20044;-49
2021/01/23 19:31:00;;;;;;;90.88;28.58;;;;;;;5.02;71.28;98536.13;10504700;28;20040;-50
2021/01/23 19:36:03;;;;;;;90.82;27.00;;;;;;;5.08;70.61;98525.22;10503407;28;20048;-49
2021/01/23 19:41:04;;;;;;;128.68;33.33;;;;;;;4.93;70.75;98536.88;10504846;28;20050;-50
2021/01/23 19:46:07;;;;;;;134.75;31.90;;;;;;;4.85;70.87;98539.25;10505434;28;20565;-54
2021/01/23 19:51:09;;;;;;;115.43;27.27;;;;;;;4.70;71.50;98533.50;10504566;28;20044;-50
2021/01/23 19:56:10;;;;;;;244.35;43.80;;;;;;;4.59;71.88;98547.38;10503469;28;20526;-52
2021/01/23 20:01:13;;;;;;;102.32;29.42;;;;;;;4.63;71.81;98545.34;10505246;28;20080;-55
2021/01/23 20:06:15;;;;;;;230.70;40.92;;;;;;;4.67;71.22;98551.94;10503635;28;20135;-51
2021/01/23 20:11:17;;;;;;;96.13;26.63;;;;;;;4.71;71.59;98547.31;10503431;28;20062;-49
2021/01/23 20:16:20;;;;;;;267.33;45.65;;;;;;;4.74;71.63;98547.09;10502848;28;20048;-51
2021/01/23 20:21:22;;;;;;;107.15;26.75;;;;;;;4.69;71.76;98546.63;10504082;28;20139;-51
2021/01/23 20:26:26;;;;;;;185.98;35.63;;;;;;;4.72;71.43;98562.00;10501678;28;20048;-50
2021/01/23 20:31:28;;;;;;;190.68;38.20;;;;;;;4.78;71.31;98564.13;10503160;28;20503;-50
2021/01/23 20:36:30;;;;;;;106.07;28.17;;;;;;;4.80;71.14;98577.84;10501574;28;20105;-50
2021/01/23 20:41:32;;;;;;;139.98;28.63;;;;;;;4.67;70.93;98582.38;10501540;28;20534;-50
2021/01/23 20:46:35;;;;;;;80.97;20.77;;;;;;;4.61;71.19;98584.50;10501456;28;20058;-51
2021/01/23 20:51:36;;;;;;;173.60;33.67;;;;;;;4.61;71.23;98583.69;10501013;28;20066;-51
2021/01/23 20:56:38;;;;;;;168.93;34.72;;;;;;;4.59;71.35;98581.22;10500859;28;20359;-52
2021/01/23 21:01:41;;;;;;;73.88;20.58;;;;;;;4.59;71.25;98578.59;10500612;28;20114;-50
2021/01/23 21:06:42;;;;;;;103.32;24.02;;;;;;;4.61;71.25;98588.88;10501496;28;20117;-50
2021/01/23 21:11:44;;;;;;;94.45;24.73;;;;;;;4.56;71.33;98581.44;10500108;28;20058;-49
2021/01/23 21:16:47;;;;;;;73.15;22.08;;;;;;;4.57;71.79;98577.88;10500320;28;20365;-52
2021/01/23 21:21:49;;;;;;;81.90;22.38;;;;;;;4.51;71.23;98578.38;10499598;28;20072;-51
2021/01/23 21:26:51;;;;;;;70.57;19.00;;;;;;;4.47;71.75;98591.75;10500518;28;20061;-52
2021/01/23 21:31:53;;;;;;;141.30;29.13;;;;;;;4.48;71.28;98572.56;10500409;28;20127;-51
2021/01/23 21:36:55;;;;;;;67.70;22.42;;;;;;;4.59;71.84;98573.41;10499468;28;20052;-51
2021/01/23 21:41:57;;;;;;;94.93;35.95;;;;;;;4.58;71.20;98579.53;10500403;28;20377;-51
2021/01/23 21:46:59;;;;;;;101.63;32.55;;;;;;;4.54;70.95;98574.69;10500249;28;20488;-51
2021/01/23 21:52:01;;;;;;;117.80;28.30;;;;;;;4.39;71.46;98579.31;10501180;28;20056;-52
2021/01/23 21:57:03;;;;;;;86.25;22.77;;;;;;;4.44;71.81;98574.59;10499850;28;20223;-57
2021/01/23 22:02:05;;;;;;;113.88;28.17;;;;;;;4.48;71.66;98575.19;10503421;28;20143;-52
2021/01/23 22:07:07;;;;;;;68.20;20.20;;;;;;;4.44;70.99;98589.38;10502932;28;20190;-51
2021/01/23 22:12:09;;;;;;;88.47;22.05;;;;;;;4.33;71.24;98582.41;10499411;28;20055;-50
2021/01/23 22:17:11;;;;;;;71.88;25.38;;;;;;;4.38;71.63;98588.09;10499109;28;20440;-49
2021/01/23 22:22:13;;;;;;;60.80;20.00;;;;;;;4.39;70.64;98584.53;10501558;28;20045;-50
2021/01/23 22:27:15;;;;;;;174.75;33.63;;;;;;;4.21;71.03;98591.16;10506511;28;20121;-50
2021/01/23 22:32:18;;;;;;;73.70;19.05;;;;;;;4.12;70.99;98588.28;10506872;28;20048;-50
2021/01/23 22:37:19;;;;;;;92.35;21.13;;;;;;;4.13;71.47;98576.97;10506602;28;20056;-54
2021/01/23 22:42:21;;;;;;;126.22;25.27;;;;;;;4.27;71.50;98580.28;10506929;28;20142;-52
2021/01/23 22:47:24;;;;;;;72.05;17.75;;;;;;;4.08;70.57;98581.69;10506674;28;20044;-51
2021/01/23 22:52:25;;;;;;;151.15;25.20;;;;;;;3.99;71.04;98577.19;10505709;28;20109;-50
2021/01/23 22:57:27;;;;;;;176.48;31.20;;;;;;;3.98;71.35;98580.72;10505524;28;20135;-50
2021/01/23 23:02:30;;;;;;;94.93;18.10;;;;;;;4.01;71.23;98580.50;10505799;28;20067;-51
2021/01/23 23:07:33;;;;;;;220.38;36.53;;;;;;;3.97;71.85;98576.47;10506060;28;20052;-49
2021/01/23 23:12:35;;;;;;;79.15;20.13;;;;;;;4.02;71.51;98581.31;10504128;28;20104;-50